WMSA/SZB METAR and TAF weather

Enter ICAO airport designator
Station Type Date Time Source
WMSA METAR 2020/04/07 08:00 UTC NOAA

WMSA 070800Z 28008KT 9999 TS FEW017CB 32/26 Q1008


Station Type Date Time Source
WMSA Decoded METAR 2020/04/07 08:00 UTC NOAA

Subang/Sultan Abdul Aziz Shah Airport, Malaysia (WMSA) 03-07N 101-32E
Apr 07, 2020 - 04:00 AM EDT / 2020.04.07 0800 UTC
Wind: from the W (280 degrees) at 9 MPH (8 KT):0
Visibility: greater than 7 mile(s):0
Sky conditions: mostly clear
Weather: thunder; Cumulonimbus clouds observed
Temperature: 89 F (32 C)
Heat index: 102.9 F (39.4 C):1
Dew Point: 78 F (26 C)
Relative Humidity: 70%
Pressure (altimeter): 29.77 in. Hg (1008 hPa)
ob: WMSA 070800Z 28008KT 9999 TS FEW017CB 32/26 Q1008
cycle: 8

Station Type Date Time Source
WMSA TAF 2020/04/07 06:09 UTC NOAA

TAF WMSA 070500Z 0706/0806 26006KT 9999 FEW017CB
TEMPO 0708/0712 26010KT 4000 TSRA FEW010 FEW017CB SCT018 PROB30
TEMPO 0716/0719 3000 TSRA FEW005 FEW016CB SCT024

Example: see airport list